createdAt,value
2022-08-03T00:01:31.010Z,81.47
2022-08-03T00:06:37.321Z,81.35
2022-08-03T00:11:41.763Z,81.20
2022-08-03T00:16:45.774Z,81.24
2022-08-03T00:21:50.525Z,81.39
2022-08-03T00:26:54.872Z,81.28
2022-08-03T00:32:02.284Z,81.34
2022-08-03T00:37:06.824Z,81.19
2022-08-03T00:42:11.072Z,81.21
2022-08-03T00:47:15.295Z,81.24
2022-08-03T00:52:19.519Z,81.24
2022-08-03T00:57:23.882Z,81.29
2022-08-03T01:02:31.758Z,81.31
2022-08-03T01:08:33.248Z,81.51
2022-08-03T01:14:01.675Z,81.64
2022-08-03T01:19:19.893Z,81.56
2022-08-03T01:24:51.968Z,81.72
2022-08-03T01:30:04.055Z,81.93
2022-08-03T01:35:15.057Z,82.23
2022-08-03T01:40:22.837Z,82.45
2022-08-03T01:45:28.959Z,82.61
2022-08-03T01:50:41.030Z,82.81
2022-08-03T01:55:50.769Z,82.93
2022-08-03T02:01:02.004Z,82.63
2022-08-03T02:06:59.909Z,82.50
2022-08-03T02:11:37.639Z,82.89
2022-08-03T02:16:41.785Z,82.94
2022-08-03T02:21:56.673Z,82.81
2022-08-03T02:27:19.400Z,82.81
2022-08-03T02:32:35.236Z,83.00
2022-08-03T02:37:50.054Z,82.94
2022-08-03T02:43:00.941Z,83.00
2022-08-03T02:48:08.084Z,82.88
2022-08-03T02:53:14.687Z,82.69
2022-08-03T02:58:24.864Z,82.33
2022-08-03T03:03:35.301Z,82.28
2022-08-03T03:08:57.902Z,82.39
2022-08-03T03:14:04.423Z,82.28
2022-08-03T03:19:16.299Z,82.21
2022-08-03T03:24:21.706Z,82.37
2022-08-03T03:29:26.832Z,82.39
2022-08-03T03:34:31.890Z,82.30
2022-08-03T03:39:37.203Z,82.04
2022-08-03T03:44:41.289Z,81.85
2022-08-03T03:49:47.069Z,81.65
2022-08-03T03:54:58.920Z,81.66
2022-08-03T04:00:06.687Z,81.54
2022-08-03T04:05:29.859Z,81.54
2022-08-03T04:10:56.717Z,81.42
2022-08-03T04:16:02.640Z,81.13
2022-08-03T04:21:12.077Z,81.09
2022-08-03T04:26:22.068Z,81.07
2022-08-03T04:31:28.985Z,81.14
2022-08-03T04:36:40.936Z,81.17
2022-08-03T04:42:07.065Z,80.99
2022-08-03T04:47:14.079Z,80.93
2022-08-03T04:52:18.930Z,80.89
2022-08-03T04:57:23.693Z,80.75
2022-08-03T05:02:27.806Z,80.57
2022-08-03T05:07:35.508Z,80.35
2022-08-03T05:12:41.613Z,80.00
2022-08-03T05:17:45.950Z,79.75
2022-08-03T05:22:50.292Z,79.35
2022-08-03T05:27:54.464Z,78.69
2022-08-03T05:32:58.873Z,77.79
2022-08-03T05:38:04.661Z,76.92
2022-08-03T05:43:09.841Z,76.15
2022-08-03T05:48:13.832Z,75.03
2022-08-03T05:53:17.873Z,73.85
2022-08-03T05:58:22.010Z,72.14
2022-08-03T06:03:26.187Z,71.58
2022-08-03T06:08:30.390Z,70.54
2022-08-03T06:13:36.135Z,70.13
2022-08-03T06:18:41.222Z,69.03
2022-08-03T06:23:54.383Z,68.64
2022-08-03T06:28:59.836Z,68.22
2022-08-03T06:34:32.396Z,68.48
2022-08-03T06:39:32.960Z,68.68
2022-08-03T06:44:39.352Z,68.00
2022-08-03T06:49:43.928Z,66.04
2022-08-03T06:55:09.105Z,63.19
2022-08-03T07:00:14.521Z,60.88
2022-08-03T07:05:19.523Z,58.81
2022-08-03T07:10:24.163Z,56.81
2022-08-03T07:15:54.014Z,56.24
2022-08-03T07:20:53.290Z,57.18
2022-08-03T07:25:57.671Z,56.41
2022-08-03T07:31:01.905Z,55.35
2022-08-03T07:36:06.388Z,53.69
2022-08-03T07:41:10.690Z,51.37
2022-08-03T07:46:15.851Z,51.06
2022-08-03T07:51:20.080Z,48.65
2022-08-03T07:56:28.717Z,48.44
2022-08-03T08:01:36.393Z,46.88
2022-08-03T08:06:40.586Z,48.18
2022-08-03T08:11:44.948Z,48.42
2022-08-03T08:16:50.801Z,47.78
2022-08-03T08:22:02.457Z,48.12
2022-08-03T08:27:09.527Z,48.62
2022-08-03T08:32:16.279Z,48.47
2022-08-03T08:37:20.748Z,48.15
2022-08-03T08:42:25.625Z,47.88
2022-08-03T08:47:51.554Z,48.02
2022-08-03T08:53:01.674Z,47.18
2022-08-03T08:58:08.114Z,46.86
2022-08-03T09:03:29.186Z,46.24
2022-08-03T09:08:35.115Z,45.54
2022-08-03T09:13:39.804Z,45.06
2022-08-03T09:18:50.292Z,44.69
2022-08-03T09:24:03.183Z,44.69
2022-08-03T09:29:15.644Z,43.43
2022-08-03T09:34:26.109Z,42.60
2022-08-03T09:39:41.508Z,41.19
2022-08-03T09:44:52.325Z,40.86
2022-08-03T09:50:02.624Z,40.67
2022-08-03T09:56:30.644Z,39.60
2022-08-03T10:00:56.322Z,39.08
2022-08-03T10:06:16.015Z,39.73
2022-08-03T10:11:42.055Z,39.60
2022-08-03T10:16:48.559Z,38.94
2022-08-03T10:22:03.428Z,39.40
2022-08-03T10:27:12.105Z,39.69
2022-08-03T10:33:03.983Z,38.80
2022-08-03T10:38:25.968Z,37.51
2022-08-03T10:43:49.736Z,37.27
2022-08-03T10:48:55.305Z,36.99
2022-08-03T10:54:01.916Z,36.35
2022-08-03T10:59:06.219Z,36.46
2022-08-03T11:04:21.713Z,37.16
2022-08-03T11:09:26.767Z,37.19
2022-08-03T11:14:48.749Z,37.51
2022-08-03T11:19:56.947Z,36.18
2022-08-03T11:25:02.691Z,36.40
2022-08-03T11:30:14.363Z,36.72
2022-08-03T11:35:25.531Z,35.95
2022-08-03T11:40:43.593Z,38.01
2022-08-03T11:46:28.674Z,37.74
2022-08-03T11:51:34.824Z,34.92
2022-08-03T11:56:49.187Z,35.60
2022-08-03T12:02:17.546Z,35.46
2022-08-03T12:08:02.494Z,35.72
2022-08-03T12:12:46.933Z,36.02
2022-08-03T12:17:54.781Z,34.72
2022-08-03T12:23:10.336Z,34.64
2022-08-03T12:28:37.266Z,35.60
2022-08-03T12:34:07.355Z,35.66
2022-08-03T12:39:12.550Z,34.90
2022-08-03T12:44:16.937Z,35.06
2022-08-03T12:49:21.781Z,34.90
2022-08-03T12:54:32.518Z,34.55
2022-08-03T12:59:45.177Z,35.07
2022-08-03T13:04:58.373Z,34.06
2022-08-03T13:10:07.850Z,33.01
2022-08-03T13:15:13.039Z,32.76
2022-08-03T13:20:17.410Z,33.58
2022-08-03T13:25:22.410Z,34.49
2022-08-03T13:30:30.440Z,34.41
2022-08-03T13:35:34.932Z,35.05
2022-08-03T13:40:42.312Z,34.80
2022-08-03T13:45:51.192Z,34.37
2022-08-03T13:51:00.401Z,35.09
2022-08-03T13:56:06.846Z,35.05
2022-08-03T14:01:12.021Z,34.60
2022-08-03T14:06:16.834Z,33.36
2022-08-03T14:11:21.077Z,32.96
2022-08-03T14:16:25.323Z,32.85
2022-08-03T14:21:29.771Z,33.34
2022-08-03T14:26:33.801Z,32.13
2022-08-03T14:32:11.016Z,33.34
2022-08-03T14:37:03.562Z,32.42
2022-08-03T14:42:08.147Z,33.20
2022-08-03T14:47:15.417Z,33.14
2022-08-03T14:52:22.518Z,33.49
2022-08-03T14:57:27.913Z,33.81
2022-08-03T15:02:32.090Z,33.48
2022-08-03T15:07:36.360Z,33.93
2022-08-03T15:12:40.703Z,33.86
2022-08-03T15:18:00.347Z,33.37
2022-08-03T15:23:05.875Z,32.26
2022-08-03T15:28:10.096Z,31.83
2022-08-03T15:33:14.145Z,31.49
2022-08-03T15:38:18.978Z,30.15
2022-08-03T15:43:24.471Z,30.58
2022-08-03T15:48:28.586Z,29.97
2022-08-03T15:53:34.136Z,29.74
2022-08-03T15:59:09.649Z,29.77
2022-08-03T16:04:06.330Z,29.61
2022-08-03T16:09:23.936Z,29.45
2022-08-03T16:14:46.868Z,28.70
2022-08-03T16:20:00.319Z,28.92
2022-08-03T16:25:05.465Z,28.84
2022-08-03T16:30:24.296Z,28.85
2022-08-03T16:35:29.522Z,29.56
2022-08-03T16:40:35.691Z,29.01
2022-08-03T16:45:40.201Z,29.93
2022-08-03T16:50:45.154Z,30.42
2022-08-03T16:55:53.118Z,30.64
2022-08-03T17:01:10.888Z,31.23
2022-08-03T17:06:33.787Z,31.64
2022-08-03T17:11:46.723Z,31.87
2022-08-03T17:16:56.335Z,32.48
2022-08-03T17:22:13.365Z,33.03
2022-08-03T17:28:49.247Z,34.45
2022-08-03T17:32:57.584Z,36.21
2022-08-03T17:38:05.765Z,36.99
2022-08-03T17:44:13.111Z,37.31
2022-08-03T17:48:42.903Z,38.31
2022-08-03T17:54:01.509Z,39.26
2022-08-03T17:59:51.750Z,40.13
2022-08-03T18:04:57.381Z,40.56
2022-08-03T18:10:12.124Z,41.12
2022-08-03T18:15:31.957Z,41.76
2022-08-03T18:26:07.308Z,45.35
2022-08-03T18:31:59.466Z,47.38
2022-08-03T18:36:50.013Z,48.69
2022-08-03T18:41:54.602Z,49.72
2022-08-03T18:47:50.696Z,50.41
2022-08-03T18:53:23.824Z,51.19
2022-08-03T18:59:02.300Z,53.49
2022-08-03T19:04:16.895Z,56.15
2022-08-03T19:09:59.331Z,57.78
2022-08-03T19:15:12.720Z,59.47
2022-08-03T19:20:29.300Z,61.70
2022-08-03T19:25:41.477Z,62.45
2022-08-03T19:30:53.662Z,63.28
2022-08-03T19:36:15.791Z,64.05
2022-08-03T19:41:22.337Z,63.78
2022-08-03T19:46:31.664Z,64.05
2022-08-03T19:52:00.686Z,64.24
2022-08-03T19:57:07.332Z,64.75
2022-08-03T20:02:27.103Z,65.52
2022-08-03T20:07:33.389Z,66.41
2022-08-03T20:12:40.929Z,67.01
2022-08-03T20:17:56.617Z,67.69
2022-08-03T20:23:11.896Z,68.28
2022-08-03T20:28:32.106Z,68.31
2022-08-03T20:33:46.537Z,68.30
2022-08-03T20:38:57.606Z,68.05
2022-08-03T20:44:02.719Z,68.01
2022-08-03T20:49:07.843Z,68.25
2022-08-03T20:54:22.719Z,68.65
2022-08-03T20:59:50.206Z,68.56
2022-08-03T21:04:55.910Z,68.70
2022-08-03T21:10:05.291Z,69.39
2022-08-03T21:12:57.779Z,43.49
2022-08-03T21:16:03.249Z,70.28
2022-08-03T21:20:47.816Z,70.41
2022-08-03T21:25:53.148Z,71.01
2022-08-03T21:31:00.403Z,70.97
2022-08-03T21:36:05.142Z,70.82
2022-08-03T21:41:09.440Z,71.39
2022-08-03T21:46:18.976Z,72.64
2022-08-03T21:51:26.889Z,74.02
2022-08-03T21:56:40.815Z,74.44
2022-08-03T22:01:51.357Z,74.46
2022-08-03T22:07:00.164Z,74.18
2022-08-03T22:12:05.638Z,73.61
2022-08-03T22:17:10.051Z,73.25
2022-08-03T22:22:18.590Z,73.11
2022-08-03T22:27:30.711Z,72.96
2022-08-03T22:32:35.026Z,72.75
2022-08-03T22:37:41.562Z,72.77
2022-08-03T22:42:50.524Z,72.93
2022-08-03T22:47:58.937Z,73.40
2022-08-03T22:53:03.812Z,73.71
2022-08-03T22:58:08.009Z,73.67
2022-08-03T23:03:14.729Z,73.62
2022-08-03T23:08:25.663Z,73.69
2022-08-03T23:13:33.651Z,73.46
2022-08-03T23:18:43.038Z,73.26
2022-08-03T23:23:47.518Z,73.04
2022-08-03T23:28:56.077Z,73.10
2022-08-03T23:34:20.559Z,73.05
2022-08-03T23:39:29.429Z,72.99
2022-08-03T23:44:44.199Z,72.86
2022-08-03T23:49:48.418Z,72.96
2022-08-03T23:55:17.109Z,73.17
